Time,TemperatureF,DewpointF,PressureIn,WindDirection,WindDirectionDegrees,WindSpeedMPH,WindSpeedGustMPH,Humidity,HourlyPrecipIn,Conditions,Clouds,dailyrainin,SoftwareType,DateUTC
2016-02-13 00:28:00,54.5,50.1,30.13,SSW,202,0.0,-999.0,85,-99.99,,,0.00,Acu-Link.com,2016-02-13 05:28:00,
2016-02-13 00:44:00,53.8,50.3,30.13,SSE,157,0.0,-999.0,88,-99.99,,,0.00,Acu-Link.com,2016-02-13 05:44:00,
2016-02-13 00:59:00,53.1,49.6,30.13,South,180,0.0,-999.0,88,-99.99,,,0.00,Acu-Link.com,2016-02-13 05:59:00,
2016-02-13 01:14:00,52.7,49.5,30.13,West,270,0.0,-999.0,89,-99.99,,,0.00,Acu-Link.com,2016-02-13 06:14:00,
2016-02-13 01:29:00,52.5,49.7,30.13,SSW,202,0.0,-999.0,90,-99.99,,,0.00,Acu-Link.com,2016-02-13 06:29:00,
2016-02-13 01:45:00,52.2,49.7,30.13,NW,315,0.0,-999.0,91,-99.99,,,0.00,Acu-Link.com,2016-02-13 06:45:00,
2016-02-13 02:15:00,51.6,49.4,30.13,NE,45,0.0,-999.0,92,-99.99,,,0.00,Acu-Link.com,2016-02-13 07:15:00,
2016-02-13 02:30:00,51.4,49.2,30.12,SSW,202,0.0,-999.0,92,-99.99,,,0.00,Acu-Link.com,2016-02-13 07:30:00,
2016-02-13 02:46:00,52.2,50.8,30.12,West,270,2.2,-999.0,95,-99.99,,,0.00,Acu-Link.com,2016-02-13 07:46:00,
2016-02-13 03:01:00,52.9,51.5,30.11,West,270,1.7,-999.0,95,-99.99,,,0.00,Acu-Link.com,2016-02-13 08:01:00,
2016-02-13 03:16:00,53.1,51.7,30.11,SW,225,0.0,-999.0,95,-99.99,,,0.00,Acu-Link.com,2016-02-13 08:16:00,
2016-02-13 03:31:00,53.2,51.8,30.11,South,180,0.0,-999.0,95,-99.99,,,0.00,Acu-Link.com,2016-02-13 08:31:00,
2016-02-13 03:46:00,53.2,51.8,30.11,South,180,0.0,-999.0,95,-99.99,,,0.00,Acu-Link.com,2016-02-13 08:46:00,
2016-02-13 04:02:00,53.6,52.2,30.11,WSW,247,1.1,-999.0,95,-99.99,,,0.00,Acu-Link.com,2016-02-13 09:02:00,
2016-02-13 04:32:00,53.6,52.2,30.11,SW,225,1.7,-999.0,95,-99.99,,,0.00,Acu-Link.com,2016-02-13 09:32:00,
2016-02-13 04:48:00,53.8,52.4,30.11,SW,225,0.0,-999.0,95,-99.99,,,0.00,Acu-Link.com,2016-02-13 09:48:00,
2016-02-13 05:03:00,53.6,52.2,30.11,West,270,0.0,-999.0,95,-99.99,,,0.00,Acu-Link.com,2016-02-13 10:03:00,
2016-02-13 05:18:00,53.6,52.2,30.12,West,270,0.0,-999.0,95,-99.99,,,0.00,Acu-Link.com,2016-02-13 10:18:00,
2016-02-13 05:34:00,53.6,52.2,30.12,West,270,0.0,-999.0,95,-99.99,,,0.00,Acu-Link.com,2016-02-13 10:34:00,
2016-02-13 06:04:00,53.2,51.8,30.14,South,180,0.0,-999.0,95,-99.99,,,0.00,Acu-Link.com,2016-02-13 11:04:00,
2016-02-13 06:20:00,53.1,51.7,30.14,South,180,0.0,-999.0,95,-99.99,,,0.00,Acu-Link.com,2016-02-13 11:20:00,
2016-02-13 06:35:00,52.7,51.3,30.15,South,180,0.0,-999.0,95,-99.99,,,0.00,Acu-Link.com,2016-02-13 11:35:00,
2016-02-13 06:50:00,52.9,51.5,30.16,WSW,247,0.0,-999.0,95,-99.99,,,0.00,Acu-Link.com,2016-02-13 11:50:00,
2016-02-13 07:05:00,53.2,51.8,30.17,West,270,0.0,-999.0,95,-99.99,,,0.00,Acu-Link.com,2016-02-13 12:05:00,
2016-02-13 07:21:00,53.8,52.7,30.17,SSW,202,0.0,-999.0,96,-99.99,,,0.00,Acu-Link.com,2016-02-13 12:21:00,
2016-02-13 07:36:00,55.2,53.8,30.17,WSW,247,0.0,-999.0,95,-99.99,,,0.00,Acu-Link.com,2016-02-13 12:36:00,
2016-02-13 07:51:00,56.7,54.7,30.16,West,270,2.2,-999.0,93,-99.99,,,0.00,Acu-Link.com,2016-02-13 12:51:00,
2016-02-13 08:06:00,58.3,55.4,30.15,West,270,2.7,-999.0,90,-99.99,,,0.00,Acu-Link.com,2016-02-13 13:06:00,
2016-02-13 08:21:00,59.7,56.1,30.13,SW,225,4.2,-999.0,88,-99.99,,,0.00,Acu-Link.com,2016-02-13 13:21:00,
2016-02-13 08:37:00,61.3,57.1,30.10,WSW,247,3.2,-999.0,86,-99.99,,,0.00,Acu-Link.com,2016-02-13 13:37:00,
2016-02-13 08:52:00,62.8,58.2,30.09,WSW,247,1.1,-999.0,85,-99.99,,,0.00,Acu-Link.com,2016-02-13 13:52:00,
2016-02-13 09:07:00,64.2,59.3,30.09,SE,135,1.7,-999.0,84,-99.99,,,0.00,Acu-Link.com,2016-02-13 14:07:00,
2016-02-13 09:22:00,65.5,59.2,30.07,NE,45,2.7,-999.0,80,-99.99,,,0.00,Acu-Link.com,2016-02-13 14:22:00,
2016-02-13 09:38:00,66.6,59.9,30.09,SSW,202,1.7,-999.0,79,-99.99,,,0.00,Acu-Link.com,2016-02-13 14:38:00,
2016-02-13 09:53:00,67.6,60.1,30.08,SW,225,5.3,-999.0,77,-99.99,,,0.00,Acu-Link.com,2016-02-13 14:53:00,
2016-02-13 10:08:00,67.8,60.3,30.10,North,0,2.2,-999.0,77,-99.99,,,0.00,Acu-Link.com,2016-02-13 15:08:00,
2016-02-13 10:23:00,67.8,60.0,30.13,West,270,4.2,-999.0,76,-99.99,,,0.00,Acu-Link.com,2016-02-13 15:23:00,
2016-02-13 10:39:00,68.2,60.0,30.14,NE,45,6.3,-999.0,75,-99.99,,,0.00,Acu-Link.com,2016-02-13 15:39:00,
2016-02-13 10:54:00,70.2,60.3,30.10,SSW,202,0.0,-999.0,71,-99.99,,,0.00,Acu-Link.com,2016-02-13 15:54:00,
2016-02-13 11:09:00,70.3,60.0,30.10,NW,315,6.3,-999.0,70,-99.99,,,0.00,Acu-Link.com,2016-02-13 16:09:00,
2016-02-13 11:24:00,71.2,59.7,30.07,NNW,337,4.2,-999.0,67,-99.99,,,0.00,Acu-Link.com,2016-02-13 16:24:00,
2016-02-13 11:40:00,73.0,59.6,30.04,NNW,337,2.2,-999.0,63,-99.99,,,0.00,Acu-Link.com,2016-02-13 16:40:00,
2016-02-13 11:55:00,72.9,59.1,30.02,ESE,112,3.2,-999.0,62,-99.99,,,0.00,Acu-Link.com,2016-02-13 16:55:00,
2016-02-13 12:10:00,74.1,58.8,30.02,SSW,202,2.7,-999.0,59,-99.99,,,0.00,Acu-Link.com,2016-02-13 17:10:00,
2016-02-13 12:25:00,74.1,57.9,30.02,North,0,4.7,-999.0,57,-99.99,,,0.00,Acu-Link.com,2016-02-13 17:25:00,
2016-02-13 12:41:00,75.0,57.7,30.00,NNW,337,5.8,-999.0,55,-99.99,,,0.00,Acu-Link.com,2016-02-13 17:41:00,
2016-02-13 12:56:00,74.8,57.0,30.00,NNW,337,3.2,-999.0,54,-99.99,,,0.00,Acu-Link.com,2016-02-13 17:56:00,
2016-02-13 13:11:00,74.7,56.4,29.99,SSE,157,1.7,-999.0,53,-99.99,,,0.00,Acu-Link.com,2016-02-13 18:11:00,
2016-02-13 13:26:00,76.3,54.6,29.98,NE,45,4.2,-999.0,47,-99.99,,,0.00,Acu-Link.com,2016-02-13 18:26:00,
2016-02-13 13:42:00,76.5,54.8,29.99,NNW,337,2.7,-999.0,47,-99.99,,,0.00,Acu-Link.com,2016-02-13 18:42:00,
2016-02-13 13:57:00,76.3,54.0,30.01,ESE,112,2.7,-999.0,46,-99.99,,,0.00,Acu-Link.com,2016-02-13 18:57:00,
2016-02-13 14:12:00,76.3,54.0,29.99,WSW,247,4.2,-999.0,46,-99.99,,,0.00,Acu-Link.com,2016-02-13 19:12:00,
2016-02-13 14:27:00,77.0,52.8,29.98,NNW,337,5.3,-999.0,43,-99.99,,,0.00,Acu-Link.com,2016-02-13 19:27:00,
2016-02-13 14:43:00,76.8,52.6,29.98,West,270,2.7,-999.0,43,-99.99,,,0.00,Acu-Link.com,2016-02-13 19:43:00,
2016-02-13 14:58:00,77.0,52.1,29.98,NE,45,3.2,-999.0,42,-99.99,,,0.00,Acu-Link.com,2016-02-13 19:58:00,
2016-02-13 15:13:00,76.3,52.8,29.98,SSW,202,2.7,-999.0,44,-99.99,,,0.00,Acu-Link.com,2016-02-13 20:13:00,
2016-02-13 15:29:00,76.3,52.1,30.00,North,0,4.2,-999.0,43,-99.99,,,0.00,Acu-Link.com,2016-02-13 20:29:00,
2016-02-13 15:44:00,76.5,53.6,30.02,SSW,202,2.2,-999.0,45,-99.99,,,0.00,Acu-Link.com,2016-02-13 20:44:00,
2016-02-13 15:59:00,75.9,54.8,30.01,ENE,67,3.2,-999.0,48,-99.99,,,0.00,Acu-Link.com,2016-02-13 20:59:00,
2016-02-13 16:15:00,74.7,55.4,30.02,East,90,2.2,-999.0,51,-99.99,,,0.00,Acu-Link.com,2016-02-13 21:15:00,
2016-02-13 16:30:00,71.8,54.2,30.04,East,90,3.2,-999.0,54,-99.99,,,0.00,Acu-Link.com,2016-02-13 21:30:00,
2016-02-13 16:45:00,71.2,54.7,30.07,NW,315,1.1,-999.0,56,-99.99,,,0.00,Acu-Link.com,2016-02-13 21:45:00,
2016-02-13 17:00:00,72.5,55.4,30.07,North,0,3.2,-999.0,55,-99.99,,,0.00,Acu-Link.com,2016-02-13 22:00:00,
2016-02-13 17:16:00,71.1,56.5,30.07,NE,45,5.3,-999.0,60,-99.99,,,0.00,Acu-Link.com,2016-02-13 22:16:00,
2016-02-13 17:31:00,70.3,55.7,30.08,SSW,202,2.2,-999.0,60,-99.99,,,0.00,Acu-Link.com,2016-02-13 22:31:00,
2016-02-13 17:46:00,70.2,55.7,30.09,NW,315,2.2,-999.0,60,-99.99,,,0.00,Acu-Link.com,2016-02-13 22:46:00,
2016-02-13 18:02:00,68.0,54.9,30.10,East,90,3.2,-999.0,63,-99.99,,,0.00,Acu-Link.com,2016-02-13 23:02:00,
2016-02-13 18:17:00,66.6,55.3,30.11,SW,225,0.0,-999.0,67,-99.99,,,0.00,Acu-Link.com,2016-02-13 23:17:00,
2016-02-13 18:32:00,65.3,55.3,30.11,NW,315,1.1,-999.0,70,-99.99,,,0.00,Acu-Link.com,2016-02-13 23:32:00,
2016-02-13 18:47:00,64.0,54.8,30.11,ENE,67,0.0,-999.0,72,-99.99,,,0.00,Acu-Link.com,2016-02-13 23:47:00,
2016-02-13 19:02:00,63.5,55.1,30.11,West,270,1.7,-999.0,74,-99.99,,,0.00,Acu-Link.com,2016-02-14 00:02:00,
2016-02-13 19:33:00,62.4,55.1,30.12,NW,315,3.7,-999.0,77,-99.99,,,0.00,Acu-Link.com,2016-02-14 00:33:00,
2016-02-13 19:48:00,62.1,55.5,30.13,ESE,112,1.7,-999.0,79,-99.99,,,0.00,Acu-Link.com,2016-02-14 00:48:00,
2016-02-13 20:03:00,61.5,55.6,30.13,West,270,1.1,-999.0,81,-99.99,,,0.00,Acu-Link.com,2016-02-14 01:03:00,
2016-02-13 20:19:00,61.0,55.5,30.13,NNW,337,2.2,-999.0,82,-99.99,,,0.00,Acu-Link.com,2016-02-14 01:19:00,
2016-02-13 20:34:00,60.4,55.2,30.13,WNW,292,3.2,-999.0,83,-99.99,,,0.00,Acu-Link.com,2016-02-14 01:34:00,
2016-02-13 20:49:00,60.3,55.4,30.13,NNE,22,1.7,-999.0,84,-99.99,,,0.00,Acu-Link.com,2016-02-14 01:49:00,
2016-02-13 21:19:00,59.4,54.9,30.14,NNW,337,0.0,-999.0,85,-99.99,,,0.00,Acu-Link.com,2016-02-14 02:19:00,
2016-02-13 21:35:00,58.6,54.4,30.14,SSW,202,0.0,-999.0,86,-99.99,,,0.00,Acu-Link.com,2016-02-14 02:35:00,
2016-02-13 21:50:00,57.9,53.7,30.14,WSW,247,0.0,-999.0,86,-99.99,,,0.00,Acu-Link.com,2016-02-14 02:50:00,
2016-02-13 22:05:00,56.8,53.3,30.14,West,270,0.0,-999.0,88,-99.99,,,0.00,Acu-Link.com,2016-02-14 03:05:00,
2016-02-13 22:21:00,56.5,53.3,30.14,SW,225,0.0,-999.0,89,-99.99,,,0.00,Acu-Link.com,2016-02-14 03:21:00,
2016-02-13 22:36:00,55.8,52.9,30.14,South,180,0.0,-999.0,90,-99.99,,,0.00,Acu-Link.com,2016-02-14 03:36:00,
2016-02-13 22:51:00,55.6,52.7,30.14,SW,225,0.0,-999.0,90,-99.99,,,0.00,Acu-Link.com,2016-02-14 03:51:00,
2016-02-13 23:07:00,54.9,52.3,30.14,South,180,0.0,-999.0,91,-99.99,,,0.00,Acu-Link.com,2016-02-14 04:07:00,
2016-02-13 23:22:00,55.0,52.7,30.15,NNW,337,2.2,-999.0,92,-99.99,,,0.00,Acu-Link.com,2016-02-14 04:22:00,
2016-02-13 23:37:00,55.2,52.9,30.15,East,90,2.2,-999.0,92,-99.99,,,0.00,Acu-Link.com,2016-02-14 04:37:00,